Time;durP1;ratioP1;P1;durP2;ratioP2;P2;SDS_P1;SDS_P2;PMS_P1;PMS_P2;Temp;Humidity;BMP_temperature;BMP_pressure;BME280_temperature;BME280_humidity;BME280_pressure;Samples;Min_cycle;Max_cycle;Signal;HPM_P1;HPM_P2
2021/11/03 00:00:31;;;;;;;11.80;8.18;;;4.90;99.90;;;;;;5064646;28;20052;-85
2021/11/03 00:02:57;;;;;;;12.63;9.65;;;4.70;99.90;;;;;;5045119;28;20064;-82
2021/11/03 00:05:23;;;;;;;12.43;9.50;;;4.80;99.90;;;;;;5064460;28;20044;-84
2021/11/03 00:07:48;;;;;;;14.65;9.52;;;4.80;99.90;;;;;;5047771;28;20097;-86
2021/11/03 00:10:16;;;;;;;12.18;9.32;;;4.90;99.90;;;;;;5048170;28;20083;-85
2021/11/03 00:12:42;;;;;;;13.15;9.90;;;4.80;99.90;;;;;;5047795;28;20040;-85
2021/11/03 00:15:09;;;;;;;12.18;9.85;;;4.80;99.90;;;;;;5047356;28;20104;-82
2021/11/03 00:17:35;;;;;;;14.20;9.18;;;4.90;99.90;;;;;;5064570;28;20531;-87
2021/11/03 00:20:01;;;;;;;12.57;9.73;;;4.80;99.90;;;;;;5047805;28;20038;-84
2021/11/03 00:22:26;;;;;;;13.77;10.02;;;4.80;99.90;;;;;;5047404;28;20044;-84
2021/11/03 00:24:52;;;;;;;14.18;10.27;;;4.80;99.90;;;;;;5060067;28;20032;-89
2021/11/03 00:27:18;;;;;;;12.45;9.93;;;4.80;99.90;;;;;;5060559;28;20107;-89
2021/11/03 00:29:43;;;;;;;13.80;10.43;;;4.70;99.90;;;;;;5047729;28;20047;-86
2021/11/03 00:32:10;;;;;;;15.10;11.30;;;4.70;99.90;;;;;;5063975;28;20037;-85
2021/11/03 00:34:36;;;;;;;12.23;9.70;;;4.60;99.90;;;;;;5047794;28;20543;-87
2021/11/03 00:37:03;;;;;;;13.55;10.30;;;4.60;99.90;;;;;;5065156;28;20114;-88
2021/11/03 00:39:29;;;;;;;13.45;10.50;;;4.60;99.90;;;;;;5047841;28;20052;-89
2021/11/03 00:41:55;;;;;;;13.60;9.75;;;4.70;99.90;;;;;;5044532;28;20029;-83
2021/11/03 00:44:27;;;;;;;14.38;10.05;;;4.60;99.90;;;;;;5044805;28;20057;-84
2021/11/03 00:46:53;;;;;;;13.75;9.95;;;4.60;99.90;;;;;;5044658;28;20041;-86
2021/11/03 00:49:19;;;;;;;12.70;9.38;;;4.70;99.90;;;;;;5044712;28;20121;-89
2021/11/03 00:51:45;;;;;;;14.15;8.85;;;4.60;99.90;;;;;;5041609;28;20037;-83
2021/11/03 00:54:11;;;;;;;11.27;9.20;;;4.40;99.90;;;;;;5047316;28;20036;-88
2021/11/03 00:56:38;;;;;;;13.25;9.35;;;4.40;99.90;;;;;;5044503;28;20040;-88
2021/11/03 00:59:04;;;;;;;13.25;9.57;;;4.30;99.90;;;;;;5061270;28;20092;-87
2021/11/03 01:01:31;;;;;;;12.25;8.68;;;4.30;99.90;;;;;;5044520;28;20032;-81
2021/11/03 01:03:58;;;;;;;13.07;9.48;;;4.20;99.90;;;;;;5047211;28;20044;-85
2021/11/03 01:06:24;;;;;;;12.93;9.80;;;4.20;99.90;;;;;;5041836;28;20044;-86
2021/11/03 01:08:49;;;;;;;12.18;9.65;;;4.10;99.90;;;;;;5044413;28;20047;-85
2021/11/03 01:11:15;;;;;;;14.43;9.70;;;4.10;99.90;;;;;;5060840;28;20078;-87
2021/11/03 01:13:41;;;;;;;13.70;9.40;;;3.90;99.90;;;;;;5044326;28;20049;-84
2021/11/03 01:16:06;;;;;;;12.43;8.73;;;3.90;99.90;;;;;;5063588;28;20048;-88
2021/11/03 01:18:33;;;;;;;12.13;9.05;;;4.00;99.90;;;;;;5044147;28;20268;-85
2021/11/03 01:21:00;;;;;;;11.93;9.38;;;4.00;99.90;;;;;;5046938;28;20040;-85
2021/11/03 01:23:27;;;;;;;11.77;8.68;;;4.00;99.90;;;;;;5046640;28;20477;-82
2021/11/03 01:25:54;;;;;;;14.13;10.05;;;3.80;99.90;;;;;;5060944;28;20029;-83
2021/11/03 01:28:20;;;;;;;12.50;8.80;;;3.80;99.90;;;;;;5057643;28;20041;-86
2021/11/03 01:30:47;;;;;;;10.57;8.25;;;3.70;99.90;;;;;;5050693;28;20044;-85
2021/11/03 01:33:15;;;;;;;10.63;8.43;;;3.70;99.90;;;;;;5058790;28;20048;-89
2021/11/03 01:35:41;;;;;;;11.98;8.27;;;3.60;99.90;;;;;;5047724;28;20439;-83
2021/11/03 01:38:07;;;;;;;12.13;8.95;;;3.60;99.90;;;;;;5050841;28;20063;-85
2021/11/03 01:40:37;;;;;;;11.57;8.60;;;3.60;99.90;;;;;;5046649;28;20043;-83
2021/11/03 01:43:05;;;;;;;12.07;8.90;;;3.70;99.90;;;;;;5049359;28;20021;-85
2021/11/03 01:45:32;;;;;;;11.93;8.68;;;3.70;99.90;;;;;;5045101;28;20484;-81
2021/11/03 01:48:02;;;;;;;12.55;8.80;;;3.80;99.90;;;;;;5054187;23;20041;-83
2021/11/03 01:50:31;;;;;;;12.45;8.38;;;3.80;99.90;;;;;;5067432;28;20060;-87
2021/11/03 01:53:20;;;;;;;9.90;7.53;;;3.80;99.90;;;;;;5047990;28;20029;-84
2021/11/03 01:55:54;;;;;;;11.75;8.05;;;3.80;99.90;;;;;;5042634;28;20447;-86
2021/11/03 01:58:26;;;;;;;10.90;7.82;;;3.90;99.90;;;;;;5050495;28;20539;-85
2021/11/03 02:00:56;;;;;;;11.32;7.80;;;3.90;99.90;;;;;;5051412;28;20082;-83
2021/11/03 02:03:25;;;;;;;11.65;7.95;;;3.70;99.90;;;;;;5050626;28;20041;-84
2021/11/03 02:05:57;;;;;;;13.77;7.65;;;3.70;99.90;;;;;;5048951;28;20125;-85
2021/11/03 02:08:26;;;;;;;10.93;7.25;;;3.60;99.90;;;;;;5047845;28;20443;-83
2021/11/03 02:10:52;;;;;;;9.95;6.90;;;3.60;99.90;;;;;;5050281;28;20504;-82
2021/11/03 02:13:17;;;;;;;9.38;6.82;;;3.60;99.90;;;;;;5047729;28;20037;-86
2021/11/03 02:15:44;;;;;;;10.43;7.13;;;3.50;99.90;;;;;;5063661;28;20038;-83
2021/11/03 02:18:16;;;;;;;11.52;7.88;;;3.60;99.90;;;;;;5064344;28;20025;-84
2021/11/03 02:20:45;;;;;;;12.43;8.38;;;3.60;99.90;;;;;;5047395;28;20037;-85
2021/11/03 02:23:32;;;;;;;11.23;7.18;;;3.60;99.90;;;;;;5049834;28;20412;-85
2021/11/03 02:26:09;;;;;;;9.45;6.70;;;3.70;99.90;;;;;;5066303;28;20033;-86
2021/11/03 02:28:43;;;;;;;8.27;6.18;;;3.70;99.90;;;;;;5047518;28;20021;-84
2021/11/03 02:31:26;;;;;;;16.23;7.00;;;3.70;99.90;;;;;;5081178;28;20051;-90
2021/11/03 02:33:52;;;;;;;13.10;6.72;;;3.50;99.90;;;;;;5046821;28;20354;-84
2021/11/03 02:36:17;;;;;;;8.45;5.72;;;3.50;99.90;;;;;;5047292;28;20043;-82
2021/11/03 02:38:44;;;;;;;9.95;6.85;;;3.40;99.90;;;;;;5047203;28;20119;-85
2021/11/03 02:41:23;;;;;;;9.63;5.70;;;3.40;99.90;;;;;;5049854;28;20504;-85
2021/11/03 02:44:08;;;;;;;7.38;5.18;;;3.40;99.90;;;;;;5063349;28;20056;-82
2021/11/03 02:46:34;;;;;;;7.15;5.32;;;3.30;99.90;;;;;;5065978;28;20053;-88
2021/11/03 02:49:00;;;;;;;7.47;4.47;;;3.30;99.90;;;;;;5063443;28;20025;-85
2021/11/03 02:51:40;;;;;;;8.70;5.25;;;3.20;99.90;;;;;;5046176;28;20478;-82
2021/11/03 02:54:14;;;;;;;8.68;5.68;;;3.10;99.90;;;;;;5066140;28;20477;-87
2021/11/03 02:56:46;;;;;;;8.52;5.15;;;3.10;99.90;;;;;;5063167;28;20029;-84
2021/11/03 02:59:14;;;;;;;7.15;5.07;;;3.30;99.90;;;;;;5049008;28;20056;-86
2021/11/03 03:01:55;;;;;;;9.98;5.90;;;3.40;99.90;;;;;;5046411;28;20124;-85
2021/11/03 03:04:25;;;;;;;8.23;6.15;;;3.40;99.90;;;;;;5044009;28;20048;-87
2021/11/03 03:06:53;;;;;;;8.05;5.25;;;3.40;99.90;;;;;;5044914;28;20029;-87
2021/11/03 03:09:20;;;;;;;10.02;6.13;;;3.50;99.90;;;;;;5040769;28;20116;-88
2021/11/03 03:11:52;;;;;;;9.13;5.60;;;3.40;99.90;;;;;;5046066;28;20064;-81
2021/11/03 03:14:21;;;;;;;10.93;6.55;;;3.50;99.90;;;;;;5049227;28;20056;-83
2021/11/03 03:16:47;;;;;;;9.63;6.22;;;3.40;99.90;;;;;;5044428;28;20117;-86
2021/11/03 03:19:14;;;;;;;11.80;6.95;;;3.50;99.90;;;;;;5047599;28;20045;-84
2021/11/03 03:21:40;;;;;;;11.80;7.55;;;3.50;99.90;;;;;;5062505;28;20040;-88
2021/11/03 03:24:08;;;;;;;9.77;6.78;;;3.40;99.90;;;;;;5048850;28;20033;-84
2021/11/03 03:26:35;;;;;;;12.02;7.28;;;3.50;99.90;;;;;;5062492;28;20037;-84
2021/11/03 03:29:03;;;;;;;11.70;7.20;;;3.50;99.90;;;;;;5045598;28;20025;-84
2021/11/03 03:31:29;;;;;;;12.15;8.00;;;3.50;99.90;;;;;;5048606;28;20049;-82
2021/11/03 03:33:58;;;;;;;11.07;7.45;;;3.50;99.90;;;;;;5045813;28;20439;-83
2021/11/03 03:36:24;;;;;;;14.25;8.38;;;3.60;99.90;;;;;;5062925;28;20097;-85
2021/11/03 03:38:51;;;;;;;12.85;7.88;;;3.60;99.90;;;;;;5061968;28;20035;-85
2021/11/03 03:41:18;;;;;;;15.05;8.38;;;3.60;99.90;;;;;;5045515;28;20068;-84
2021/11/03 03:43:45;;;;;;;13.00;8.02;;;3.60;99.90;;;;;;5045732;28;20119;-85
2021/11/03 03:46:12;;;;;;;13.18;8.23;;;3.50;99.90;;;;;;5047734;28;20393;-86
2021/11/03 03:48:38;;;;;;;13.00;8.38;;;3.50;99.90;;;;;;5063445;28;20070;-83
2021/11/03 03:51:04;;;;;;;11.68;7.53;;;3.50;99.90;;;;;;5047516;28;20041;-85
2021/11/03 03:53:31;;;;;;;13.63;8.80;;;3.50;99.90;;;;;;5028934;28;20100;-84
2021/11/03 03:55:56;;;;;;;11.82;7.60;;;3.50;99.90;;;;;;5031318;28;20047;-85
2021/11/03 03:58:22;;;;;;;13.35;7.53;;;3.50;99.90;;;;;;5047622;28;20044;-82
2021/11/03 04:00:50;;;;;;;13.23;7.70;;;3.40;99.90;;;;;;5028849;28;20041;-86
2021/11/03 04:03:17;;;;;;;11.32;7.57;;;3.50;99.90;;;;;;5030585;28;20037;-83
2021/11/03 04:05:44;;;;;;;13.68;7.53;;;3.50;99.90;;;;;;5046316;28;20029;-87
2021/11/03 04:08:13;;;;;;;10.90;7.40;;;3.50;99.90;;;;;;5031722;28;20044;-85
2021/11/03 04:10:40;;;;;;;11.30;7.47;;;3.50;99.90;;;;;;5031194;28;20075;-84
2021/11/03 04:13:07;;;;;;;13.43;7.45;;;3.60;99.90;;;;;;5042126;28;20032;-87
2021/11/03 04:15:34;;;;;;;11.23;6.90;;;3.60;99.90;;;;;;5031108;28;20049;-84
2021/11/03 04:18:00;;;;;;;11.07;7.47;;;3.60;99.90;;;;;;5028824;28;20040;-88
2021/11/03 04:20:26;;;;;;;10.02;6.32;;;3.60;99.90;;;;;;5031098;28;20032;-84
2021/11/03 04:22:56;;;;;;;10.50;6.45;;;3.60;99.90;;;;;;5044777;28;20037;-80
2021/11/03 04:25:23;;;;;;;11.25;6.82;;;3.60;99.90;;;;;;5026687;28;20036;-84
2021/11/03 04:27:50;;;;;;;8.93;5.70;;;3.60;99.90;;;;;;5046416;28;20083;-86
2021/11/03 04:30:19;;;;;;;9.45;7.00;;;3.60;99.90;;;;;;5025563;28;20420;-83
2021/11/03 04:32:46;;;;;;;9.07;6.20;;;3.60;99.90;;;;;;5041935;28;20049;-82
2021/11/03 04:35:13;;;;;;;11.95;7.20;;;3.70;99.90;;;;;;5044264;28;20033;-84
2021/11/03 04:37:39;;;;;;;10.20;7.90;;;3.60;99.90;;;;;;5028310;28;20088;-83
2021/11/03 04:40:08;;;;;;;13.75;7.93;;;3.60;99.90;;;;;;5028037;28;20092;-86
2021/11/03 04:42:34;;;;;;;10.60;7.97;;;3.70;99.90;;;;;;5044304;28;20037;-86
2021/11/03 04:45:00;;;;;;;8.43;6.28;;;3.70;99.90;;;;;;5047283;28;20060;-82
2021/11/03 04:47:26;;;;;;;10.27;7.15;;;3.70;99.90;;;;;;5058215;23;20084;-88
2021/11/03 04:49:52;;;;;;;11.40;6.72;;;3.70;99.90;;;;;;5028505;28;20033;-87
2021/11/03 04:52:18;;;;;;;9.25;6.22;;;3.60;99.90;;;;;;5031080;28;20049;-85
2021/11/03 04:54:43;;;;;;;10.57;6.85;;;3.60;99.90;;;;;;5031158;28;20120;-83
2021/11/03 04:57:17;;;;;;;9.52;6.85;;;3.70;99.90;;;;;;5031140;28;20036;-84
2021/11/03 04:59:44;;;;;;;8.20;6.05;;;3.70;99.90;;;;;;5027206;28;20515;-84
2021/11/03 05:02:14;;;;;;;10.73;6.32;;;3.70;99.90;;;;;;5023651;28;20032;-85
2021/11/03 05:04:40;;;;;;;16.40;6.32;;;3.70;99.90;;;;;;5029579;28;20037;-88
2021/11/03 05:07:10;;;;;;;8.20;6.57;;;3.70;99.90;;;;;;5028830;28;20033;-87
2021/11/03 05:09:36;;;;;;;8.60;6.18;;;3.70;99.90;;;;;;5031203;28;20040;-81
2021/11/03 05:12:03;;;;;;;10.52;6.45;;;3.70;99.90;;;;;;5030852;28;20120;-87
2021/11/03 05:14:31;;;;;;;9.18;5.28;;;3.70;99.90;;;;;;5030788;28;20029;-87
2021/11/03 05:16:57;;;;;;;9.20;5.85;;;3.70;99.90;;;;;;5028342;28;20025;-83
2021/11/03 05:19:29;;;;;;;10.55;6.68;;;3.70;99.90;;;;;;5023767;28;20039;-84
2021/11/03 05:22:12;;;;;;;9.23;5.90;;;3.70;99.90;;;;;;5030235;28;20040;-83
2021/11/03 05:24:38;;;;;;;9.00;6.40;;;3.70;99.90;;;;;;5030843;28;20041;-87
2021/11/03 05:27:03;;;;;;;8.75;6.38;;;3.70;99.90;;;;;;5027500;28;20093;-82
2021/11/03 05:29:29;;;;;;;8.45;5.47;;;3.70;99.90;;;;;;5044163;28;20038;-87
2021/11/03 05:31:55;;;;;;;7.47;5.88;;;3.80;99.90;;;;;;5030353;28;20045;-84
2021/11/03 05:34:20;;;;;;;10.38;6.10;;;3.80;99.90;;;;;;5024990;28;20048;-86
2021/11/03 05:36:46;;;;;;;13.85;6.43;;;3.80;99.90;;;;;;5030533;28;20041;-83
2021/11/03 05:39:14;;;;;;;10.90;6.50;;;3.70;99.90;;;;;;5047184;28;20044;-86
2021/11/03 05:41:40;;;;;;;7.53;5.85;;;3.70;99.90;;;;;;5044260;28;20096;-84
2021/11/03 05:44:20;;;;;;;7.40;5.57;;;3.70;99.90;;;;;;5027569;28;20029;-88
2021/11/03 05:46:55;;;;;;;9.53;6.10;;;3.70;99.90;;;;;;5044350;28;20037;-83
2021/11/03 05:49:31;;;;;;;7.38;4.82;;;3.70;99.90;;;;;;5023644;28;20289;-85
2021/11/03 05:51:59;;;;;;;9.10;6.68;;;3.70;99.90;;;;;;5029806;28;20047;-87
2021/11/03 05:54:26;;;;;;;8.93;5.40;;;3.70;99.90;;;;;;5046460;28;20466;-82
2021/11/03 05:56:57;;;;;;;8.75;6.43;;;3.60;99.90;;;;;;5027534;28;20069;-90
2021/11/03 05:59:23;;;;;;;8.02;5.88;;;3.70;99.90;;;;;;5040581;28;20101;-86
2021/11/03 06:01:49;;;;;;;10.25;7.07;;;3.60;99.90;;;;;;5016252;28;20033;-83
2021/11/03 06:04:15;;;;;;;10.90;6.90;;;3.60;99.90;;;;;;5057748;28;20045;-83
2021/11/03 06:06:41;;;;;;;10.55;7.68;;;3.50;99.90;;;;;;5029709;28;20046;-85
2021/11/03 06:09:09;;;;;;;10.07;6.85;;;3.50;99.90;;;;;;5036065;28;20040;-83
2021/11/03 06:11:37;;;;;;;9.95;6.82;;;3.50;99.90;;;;;;5026213;28;20383;-83
2021/11/03 06:14:04;;;;;;;9.77;6.93;;;3.40;99.90;;;;;;5038240;28;20030;-83
2021/11/03 06:16:30;;;;;;;9.68;6.50;;;3.40;99.90;;;;;;5042101;28;20338;-85
2021/11/03 06:18:56;;;;;;;9.63;6.70;;;3.40;99.90;;;;;;5025887;28;20051;-86
2021/11/03 06:21:21;;;;;;;9.73;6.72;;;3.50;99.90;;;;;;5028644;28;20056;-86
2021/11/03 06:23:47;;;;;;;10.30;7.00;;;3.50;99.90;;;;;;5046488;28;20447;-81
2021/11/03 06:26:15;;;;;;;11.85;7.80;;;3.50;99.90;;;;;;5040797;28;20065;-82
2021/11/03 06:28:41;;;;;;;10.48;7.47;;;3.50;99.90;;;;;;5047114;28;20041;-85
2021/11/03 06:31:07;;;;;;;10.68;7.68;;;3.50;99.90;;;;;;5025762;28;20045;-84
2021/11/03 06:33:33;;;;;;;9.75;7.35;;;3.40;99.90;;;;;;5057349;28;20025;-83
2021/11/03 06:36:01;;;;;;;10.60;7.55;;;3.50;99.90;;;;;;5041553;28;20040;-83
2021/11/03 06:38:28;;;;;;;10.85;7.53;;;3.40;99.90;;;;;;5046640;28;20036;-83
2021/11/03 06:40:56;;;;;;;11.00;7.85;;;3.40;99.90;;;;;;5027894;28;20467;-82
2021/11/03 06:43:23;;;;;;;10.30;7.78;;;3.30;99.90;;;;;;5027407;28;20041;-83
2021/11/03 06:45:48;;;;;;;11.35;7.68;;;3.30;99.90;;;;;;5024429;28;20041;-82
2021/11/03 06:48:14;;;;;;;10.65;7.28;;;3.30;99.90;;;;;;5036579;28;20056;-83
2021/11/03 06:50:41;;;;;;;10.77;7.32;;;3.40;99.90;;;;;;5043738;28;20132;-84
2021/11/03 06:53:10;;;;;;;9.70;6.85;;;3.40;99.90;;;;;;5060472;28;20036;-82
2021/11/03 06:55:38;;;;;;;10.23;7.32;;;3.40;99.90;;;;;;5041532;28;20029;-83
2021/11/03 06:58:04;;;;;;;13.70;7.55;;;3.40;99.90;;;;;;5039809;28;20104;-82
2021/11/03 07:00:38;;;;;;;14.55;7.60;;;3.40;99.90;;;;;;5044807;28;20155;-82
2021/11/03 07:03:03;;;;;;;11.75;7.03;;;3.50;99.90;;;;;;5080152;28;20421;-83
2021/11/03 07:05:31;;;;;;;11.35;7.30;;;3.40;99.90;;;;;;5039573;28;20029;-83
2021/11/03 07:07:57;;;;;;;10.93;7.70;;;3.40;99.90;;;;;;5057203;28;20045;-82
2021/11/03 07:10:26;;;;;;;12.00;8.07;;;3.40;99.90;;;;;;5044982;28;20168;-82
2021/11/03 07:12:56;;;;;;;11.38;7.28;;;3.40;99.90;;;;;;5041362;28;20029;-83
2021/11/03 07:15:22;;;;;;;16.17;10.85;;;3.40;99.90;;;;;;5035704;28;20048;-82
2021/11/03 07:17:48;;;;;;;11.90;7.90;;;3.40;99.90;;;;;;5037087;28;20040;-82
2021/11/03 07:20:14;;;;;;;12.07;8.23;;;3.40;99.90;;;;;;5048061;28;20041;-82
2021/11/03 07:22:40;;;;;;;11.82;8.48;;;3.40;99.90;;;;;;5042350;28;20033;-83
2021/11/03 07:25:08;;;;;;;10.95;7.60;;;3.40;99.90;;;;;;5044453;28;20051;-82
2021/11/03 07:27:33;;;;;;;9.32;6.65;;;3.50;99.90;;;;;;5064141;28;20063;-83
2021/11/03 07:29:59;;;;;;;9.07;6.63;;;3.50;99.90;;;;;;5061126;28;20074;-82
2021/11/03 07:32:25;;;;;;;10.05;7.00;;;3.50;99.90;;;;;;5056139;28;20080;-82
2021/11/03 07:34:50;;;;;;;7.32;5.97;;;3.50;99.90;;;;;;5056076;28;20029;-83
2021/11/03 07:37:16;;;;;;;11.65;7.22;;;3.50;99.90;;;;;;5058692;28;20065;-82
2021/11/03 07:39:43;;;;;;;10.80;7.32;;;3.50;99.90;;;;;;5041075;28;20048;-83
2021/11/03 07:42:09;;;;;;;10.57;7.13;;;3.60;99.90;;;;;;5040874;28;20044;-82
2021/11/03 07:44:38;;;;;;;9.10;7.13;;;3.70;99.90;;;;;;5057152;28;20040;-82
2021/11/03 07:47:04;;;;;;;9.95;6.75;;;3.80;99.90;;;;;;5040934;28;20043;-82
2021/11/03 07:49:30;;;;;;;9.82;7.43;;;3.80;99.90;;;;;;5028045;28;20104;-82
2021/11/03 07:51:56;;;;;;;8.43;6.80;;;3.90;99.90;;;;;;5025055;28;20190;-83
2021/11/03 07:54:22;;;;;;;9.02;6.93;;;3.90;99.90;;;;;;5027533;28;20057;-83
2021/11/03 07:56:48;;;;;;;7.70;6.45;;;4.00;99.90;;;;;;5026245;28;20037;-83
2021/11/03 07:59:16;;;;;;;9.02;6.28;;;4.00;99.90;;;;;;5030253;28;20033;-82
2021/11/03 08:01:42;;;;;;;9.35;6.80;;;4.00;99.90;;;;;;5022188;28;20029;-83
2021/11/03 08:04:09;;;;;;;8.80;6.40;;;4.00;99.90;;;;;;5028470;28;20036;-82
2021/11/03 08:06:35;;;;;;;7.47;5.63;;;4.10;99.90;;;;;;5026185;28;20032;-82
2021/11/03 08:09:03;;;;;;;9.25;7.30;;;4.10;99.90;;;;;;5025250;28;20045;-83
2021/11/03 08:11:46;;;;;;;9.73;6.53;;;4.00;99.90;;;;;;5025027;28;20095;-82
2021/11/03 08:14:12;;;;;;;9.65;6.65;;;4.10;99.90;;;;;;5047477;28;20064;-82
2021/11/03 08:16:55;;;;;;;8.35;6.03;;;4.20;99.90;;;;;;5027983;28;20497;-83
2021/11/03 08:19:23;;;;;;;9.75;6.35;;;4.10;99.90;;;;;;5025314;28;20037;-82
2021/11/03 08:21:49;;;;;;;14.68;10.75;;;4.10;99.90;;;;;;5030964;28;20120;-82
2021/11/03 08:24:14;;;;;;;11.40;9.65;;;4.10;99.90;;;;;;5040707;28;20045;-83
2021/11/03 08:26:40;;;;;;;12.38;8.95;;;4.10;99.90;;;;;;5030360;28;20436;-82
2021/11/03 08:29:06;;;;;;;13.07;8.43;;;4.20;99.90;;;;;;5027572;28;20049;-82
2021/11/03 08:31:32;;;;;;;11.32;8.55;;;4.30;99.90;;;;;;5046326;28;20045;-82
2021/11/03 08:33:58;;;;;;;10.20;7.80;;;4.20;99.90;;;;;;5027159;28;20175;-82
2021/11/03 08:36:25;;;;;;;9.02;7.70;;;4.20;99.90;;;;;;5053796;28;20431;-82
2021/11/03 08:38:55;;;;;;;9.20;7.35;;;4.30;99.90;;;;;;5024939;28;20037;-82
2021/11/03 08:41:22;;;;;;;8.68;6.80;;;4.40;99.90;;;;;;5024729;28;20037;-82
2021/11/03 08:43:48;;;;;;;8.10;6.50;;;4.40;99.90;;;;;;5024567;28;20041;-82
2021/11/03 08:46:15;;;;;;;9.30;6.82;;;4.40;99.90;;;;;;5024889;28;20068;-82
2021/11/03 08:48:42;;;;;;;9.88;6.38;;;4.50;99.90;;;;;;5055719;28;20037;-82
2021/11/03 08:51:08;;;;;;;9.02;6.22;;;4.50;99.90;;;;;;5044626;28;20056;-83
2021/11/03 08:53:33;;;;;;;9.02;6.65;;;4.50;99.90;;;;;;5052028;28;20041;-83
2021/11/03 08:55:59;;;;;;;9.07;6.55;;;4.60;99.90;;;;;;5040994;28;20037;-83
2021/11/03 08:58:27;;;;;;;9.30;7.05;;;4.60;99.90;;;;;;5038013;28;20037;-83
2021/11/03 09:00:55;;;;;;;10.10;7.28;;;4.60;99.90;;;;;;5040652;28;20034;-82
2021/11/03 09:03:21;;;;;;;9.85;7.97;;;4.60;99.90;;;;;;5037875;28;20041;-82
2021/11/03 09:05:48;;;;;;;11.93;7.68;;;4.70;99.90;;;;;;5057093;28;20037;-83
2021/11/03 09:08:14;;;;;;;9.90;6.93;;;4.70;99.90;;;;;;5046028;28;20033;-83
2021/11/03 09:10:47;;;;;;;10.32;7.50;;;4.80;99.90;;;;;;5043463;28;20060;-82
2021/11/03 09:13:20;;;;;;;9.57;7.93;;;4.80;99.90;;;;;;5054394;28;20041;-82
2021/11/03 09:15:46;;;;;;;11.35;7.90;;;4.80;99.90;;;;;;5065379;28;20037;-83
2021/11/03 09:18:12;;;;;;;9.77;7.65;;;4.90;99.90;;;;;;5040705;28;20029;-83
2021/11/03 09:20:40;;;;;;;9.38;7.57;;;5.00;99.90;;;;;;5040566;28;20037;-82
2021/11/03 09:23:07;;;;;;;11.07;7.95;;;5.00;99.90;;;;;;5022638;28;20038;-83
2021/11/03 09:25:33;;;;;;;11.32;7.97;;;5.10;99.90;;;;;;5060121;28;20037;-83
2021/11/03 09:27:59;;;;;;;10.35;8.30;;;5.20;99.90;;;;;;5057052;28;20048;-82
2021/11/03 09:30:27;;;;;;;8.70;6.18;;;5.20;99.90;;;;;;5060208;28;20044;-82
2021/11/03 09:32:55;;;;;;;12.25;9.10;;;5.20;99.90;;;;;;5043093;28;20033;-82
2021/11/03 09:35:23;;;;;;;14.50;10.82;;;5.10;99.90;;;;;;5040344;28;20038;-83
2021/11/03 09:37:49;;;;;;;15.57;11.30;;;5.10;99.90;;;;;;5043313;28;20037;-83
2021/11/03 09:40:27;;;;;;;17.60;13.13;;;5.10;99.90;;;;;;5040612;28;20036;-82
2021/11/03 09:42:53;;;;;;;16.27;12.50;;;5.20;99.90;;;;;;5054814;28;20057;-82
2021/11/03 09:45:39;;;;;;;14.20;10.80;;;5.20;99.90;;;;;;5062051;28;20041;-82
2021/11/03 09:48:22;;;;;;;13.35;10.07;;;5.30;99.90;;;;;;4967228;28;20130;-83
2021/11/03 09:50:52;;;;;;;13.10;9.48;;;5.40;99.90;;;;;;4999730;28;20082;-82
2021/11/03 09:53:29;;;;;;;14.77;9.57;;;5.40;99.90;;;;;;4967978;28;20034;-81
2021/11/03 09:55:56;;;;;;;10.00;7.72;;;5.40;99.90;;;;;;4960143;28;20058;-82
2021/11/03 09:58:43;;;;;;;11.45;9.45;;;5.40;99.90;;;;;;4984515;28;20061;-82
2021/11/03 10:01:26;;;;;;;13.38;9.10;;;5.50;99.90;;;;;;4987641;28;20053;-83
2021/11/03 10:04:07;;;;;;;9.93;8.48;;;5.60;99.90;;;;;;5002801;28;20034;-82
2021/11/03 10:06:59;;;;;;;10.90;8.25;;;5.60;99.90;;;;;;4960420;28;20038;-82
2021/11/03 10:09:25;;;;;;;10.18;7.65;;;5.70;99.90;;;;;;5002636;28;20054;-82
2021/11/03 10:11:54;;;;;;;13.48;9.43;;;5.80;99.90;;;;;;4980261;28;20046;-82
2021/11/03 10:14:22;;;;;;;14.30;9.77;;;5.80;99.90;;;;;;4991616;28;20130;-82
2021/11/03 10:16:52;;;;;;;9.85;7.13;;;5.80;99.90;;;;;;4964861;28;20051;-81
2021/11/03 10:19:19;;;;;;;;;;;5.80;99.90;;;;;;5005848;28;20038;-82
2021/11/03 10:21:52;;;;;;;9.77;6.60;;;5.90;99.90;;;;;;5000050;28;19921;-82
2021/11/03 10:24:20;;;;;;;13.85;9.27;;;6.10;99.90;;;;;;5000031;28;20485;-82
2021/11/03 10:27:09;;;;;;;10.75;8.55;;;6.00;99.90;;;;;;5040200;28;20074;-83
2021/11/03 10:29:48;;;;;;;10.73;8.48;;;6.10;99.90;;;;;;5054582;28;20057;-82
2021/11/03 10:32:39;;;;;;;12.50;7.00;;;6.10;99.90;;;;;;5057251;28;20463;-83
2021/11/03 10:35:27;;;;;;;12.43;9.02;;;6.10;99.90;;;;;;5046002;28;20037;-83
2021/11/03 10:38:08;;;;;;;15.40;10.88;;;6.10;99.90;;;;;;5078614;28;20429;-83
2021/11/03 10:40:54;;;;;;;17.77;11.77;;;6.10;99.90;;;;;;5060056;28;20041;-82
2021/11/03 10:43:42;;;;;;;14.02;10.50;;;6.10;99.90;;;;;;5040448;28;20416;-83
2021/11/03 10:46:27;;;;;;;23.83;16.92;;;6.20;99.90;;;;;;5064605;28;20047;-81
2021/11/03 10:49:17;;;;;;;19.08;14.30;;;6.00;99.90;;;;;;5046017;28;20048;-82
2021/11/03 10:51:56;;;;;;;19.60;13.90;;;6.20;99.90;;;;;;5062026;28;20072;-82
2021/11/03 10:54:21;;;;;;;20.40;14.40;;;6.10;99.90;;;;;;5037661;28;20091;-83
2021/11/03 10:56:59;;;;;;;18.35;12.25;;;6.20;99.90;;;;;;5058622;28;20037;-83
2021/11/03 10:59:30;;;;;;;18.42;12.35;;;6.30;99.90;;;;;;5061838;28;20033;-83
2021/11/03 11:02:19;;;;;;;20.13;13.40;;;6.30;99.90;;;;;;5057910;28;20052;-82
2021/11/03 11:04:46;;;;;;;16.05;11.18;;;6.30;99.90;;;;;;5031275;28;20045;-83
2021/11/03 11:07:23;;;;;;;18.13;11.80;;;6.40;99.90;;;;;;5037297;28;20056;-83
2021/11/03 11:09:59;;;;;;;17.38;12.13;;;6.40;99.90;;;;;;5047545;28;20037;-83
2021/11/03 11:12:34;;;;;;;22.00;14.30;;;6.50;99.90;;;;;;5045987;28;20094;-83
2021/11/03 11:15:20;;;;;;;25.38;16.30;;;6.50;99.90;;;;;;5056572;28;20047;-82
2021/11/03 11:18:01;;;;;;;24.33;16.35;;;6.40;99.90;;;;;;5045106;28;20356;-83
2021/11/03 11:20:39;;;;;;;23.00;14.23;;;6.60;99.90;;;;;;5061723;28;20129;-82
2021/11/03 11:23:27;;;;;;;28.13;17.75;;;6.40;99.90;;;;;;5044192;28;20506;-83
2021/11/03 11:26:07;;;;;;;28.80;17.20;;;6.50;99.90;;;;;;5056499;28;20028;-82
2021/11/03 11:29:13;;;;;;;23.55;14.27;;;6.50;99.90;;;;;;5064042;28;20037;-82
2021/11/03 11:31:45;;;;;;;41.78;22.38;;;6.70;99.90;;;;;;5063808;28;20052;-83
2021/11/03 11:34:41;;;;;;;30.05;19.48;;;6.60;99.90;;;;;;5056342;28;20060;-82
2021/11/03 11:37:15;;;;;;;30.83;16.45;;;6.80;99.90;;;;;;5045019;28;20370;-81
2021/11/03 11:39:43;;;;;;;26.88;16.00;;;6.90;99.90;;;;;;5042416;28;20496;-83
2021/11/03 11:42:17;;;;;;;23.88;13.05;;;7.00;99.90;;;;;;5042071;28;20416;-82
2021/11/03 11:48:34;;;;;;;26.42;14.75;;;6.90;99.90;;;;;;4970435;28;20066;-83
2021/11/03 11:51:08;;;;;;;28.50;15.75;;;7.00;99.90;;;;;;4984073;28;20109;-82
2021/11/03 11:54:02;;;;;;;28.73;16.95;;;7.00;99.90;;;;;;4982422;28;20097;-83
2021/11/03 11:56:33;;;;;;;34.13;19.02;;;6.90;99.90;;;;;;4967882;28;20049;-83
2021/11/03 11:59:11;;;;;;;32.70;18.35;;;6.80;99.90;;;;;;4967855;28;20110;-83
2021/11/03 12:01:49;;;;;;;32.30;18.38;;;6.80;99.90;;;;;;4983717;28;20043;-82
2021/11/03 12:04:20;;;;;;;23.58;14.70;;;6.90;99.90;;;;;;4984000;28;21566;-82
2021/11/03 12:06:52;;;;;;;27.73;16.60;;;7.00;99.90;;;;;;4983888;28;20035;-83
2021/11/03 12:09:31;;;;;;;26.33;14.63;;;7.10;99.90;;;;;;4951926;28;20085;-83
2021/11/03 12:12:06;;;;;;;16.08;9.88;;;7.10;99.90;;;;;;4983035;28;20050;-83
2021/11/03 12:14:41;;;;;;;34.42;22.13;;;7.20;99.90;;;;;;4973193;28;20061;-82
2021/11/03 12:17:09;;;;;;;35.20;20.88;;;6.90;99.90;;;;;;4950533;28;20135;-83
2021/11/03 12:19:38;;;;;;;28.88;18.73;;;6.80;99.90;;;;;;4983775;28;20035;-83
2021/11/03 12:22:25;;;;;;;29.38;18.42;;;7.00;99.90;;;;;;4967314;28;20050;-82
2021/11/03 12:24:52;;;;;;;35.00;21.45;;;6.70;99.90;;;;;;5001078;28;20037;-82
2021/11/03 12:27:24;;;;;;;35.15;21.17;;;6.70;99.90;;;;;;5051361;28;20042;-83
2021/11/03 12:30:07;;;;;;;26.58;17.63;;;6.80;99.90;;;;;;5038607;28;20037;-82
2021/11/03 12:32:57;;;;;;;24.15;14.68;;;7.00;99.90;;;;;;5056156;28;20041;-82
2021/11/03 12:35:23;;;;;;;23.33;14.55;;;7.20;99.90;;;;;;5044128;28;20041;-83
2021/11/03 12:37:51;;;;;;;23.88;13.68;;;7.20;99.90;;;;;;5046813;28;20082;-82
2021/11/03 12:40:25;;;;;;;18.17;11.75;;;7.20;99.90;;;;;;5055030;28;20045;-82
2021/11/03 12:43:18;;;;;;;33.55;20.48;;;7.10;99.90;;;;;;5056070;28;20037;-82
2021/11/03 12:46:07;;;;;;;27.70;17.40;;;6.90;99.90;;;;;;5034313;28;20141;-83
2021/11/03 12:49:02;;;;;;;32.20;21.02;;;6.90;99.90;;;;;;5058239;28;20049;-83
2021/11/03 12:51:38;;;;;;;27.60;17.27;;;7.00;99.90;;;;;;5033061;28;20116;-82
2021/11/03 12:54:21;;;;;;;28.35;16.90;;;6.90;99.90;;;;;;5036750;28;20030;-83
2021/11/03 12:57:02;;;;;;;37.05;22.48;;;6.90;99.90;;;;;;5042150;28;20040;-83
2021/11/03 12:59:37;;;;;;;26.70;17.45;;;6.90;99.90;;;;;;5060175;28;20033;-83
2021/11/03 13:02:16;;;;;;;24.10;15.77;;;7.00;99.90;;;;;;5054241;28;20037;-83
2021/11/03 13:04:47;;;;;;;25.52;16.33;;;7.10;99.90;;;;;;5043818;28;20060;-82
2021/11/03 13:07:26;;;;;;;24.45;15.00;;;7.10;99.90;;;;;;5044232;28;20199;-82